sensor_id;sensor_type;location;lat;lon;timestamp;P1;durP1;ratioP1;P2;durP2;ratioP2
67595;SDS011;54410;48.694;8.934;2024-03-02T00:02:23;11.30;;;9.63;;
67595;SDS011;54410;48.694;8.934;2024-03-02T00:04:50;12.37;;;10.10;;
67595;SDS011;54410;48.694;8.934;2024-03-02T00:07:16;16.97;;;10.73;;
67595;SDS011;54410;48.694;8.934;2024-03-02T00:09:42;12.57;;;10.33;;
67595;SDS011;54410;48.694;8.934;2024-03-02T00:12:08;13.83;;;10.57;;
67595;SDS011;54410;48.694;8.934;2024-03-02T00:14:34;14.20;;;10.70;;
67595;SDS011;54410;48.694;8.934;2024-03-02T00:17:00;16.60;;;10.83;;
67595;SDS011;54410;48.694;8.934;2024-03-02T00:19:26;12.03;;;10.17;;
67595;SDS011;54410;48.694;8.934;2024-03-02T00:21:52;16.40;;;10.93;;
67595;SDS011;54410;48.694;8.934;2024-03-02T00:24:20;17.07;;;11.57;;
67595;SDS011;54410;48.694;8.934;2024-03-02T00:26:47;17.93;;;11.63;;
67595;SDS011;54410;48.694;8.934;2024-03-02T00:29:15;18.43;;;12.27;;
67595;SDS011;54410;48.694;8.934;2024-03-02T00:31:41;19.67;;;13.00;;
67595;SDS011;54410;48.694;8.934;2024-03-02T00:34:07;20.43;;;13.00;;
67595;SDS011;54410;48.694;8.934;2024-03-02T00:36:35;23.47;;;13.70;;
67595;SDS011;54410;48.694;8.934;2024-03-02T00:39:01;20.70;;;13.30;;
67595;SDS011;54410;48.694;8.934;2024-03-02T00:41:29;20.00;;;12.60;;
67595;SDS011;54410;48.694;8.934;2024-03-02T00:46:26;19.97;;;13.17;;
67595;SDS011;54410;48.694;8.934;2024-03-02T00:51:19;21.70;;;14.50;;
67595;SDS011;54410;48.694;8.934;2024-03-02T00:53:46;21.43;;;13.87;;
67595;SDS011;54410;48.694;8.934;2024-03-02T00:56:12;20.07;;;13.63;;
67595;SDS011;54410;48.694;8.934;2024-03-02T00:58:39;18.77;;;13.37;;
67595;SDS011;54410;48.694;8.934;2024-03-02T01:01:05;16.87;;;12.53;;
67595;SDS011;54410;48.694;8.934;2024-03-02T01:03:32;19.90;;;13.73;;
67595;SDS011;54410;48.694;8.934;2024-03-02T01:05:58;20.50;;;13.93;;
67595;SDS011;54410;48.694;8.934;2024-03-02T01:08:24;20.80;;;13.50;;
67595;SDS011;54410;48.694;8.934;2024-03-02T01:10:49;22.40;;;13.13;;
67595;SDS011;54410;48.694;8.934;2024-03-02T01:13:15;20.77;;;12.97;;
67595;SDS011;54410;48.694;8.934;2024-03-02T01:15:41;21.50;;;12.90;;
67595;SDS011;54410;48.694;8.934;2024-03-02T01:18:07;24.30;;;14.37;;
67595;SDS011;54410;48.694;8.934;2024-03-02T01:20:33;20.27;;;13.80;;
67595;SDS011;54410;48.694;8.934;2024-03-02T01:22:59;20.77;;;13.00;;
67595;SDS011;54410;48.694;8.934;2024-03-02T01:25:25;24.20;;;14.43;;
67595;SDS011;54410;48.694;8.934;2024-03-02T01:27:51;24.57;;;13.80;;
67595;SDS011;54410;48.694;8.934;2024-03-02T01:30:17;24.87;;;13.90;;
67595;SDS011;54410;48.694;8.934;2024-03-02T01:32:43;24.43;;;14.40;;
67595;SDS011;54410;48.694;8.934;2024-03-02T01:35:09;22.53;;;14.20;;
67595;SDS011;54410;48.694;8.934;2024-03-02T01:37:35;19.90;;;13.73;;
67595;SDS011;54410;48.694;8.934;2024-03-02T01:40:01;24.87;;;14.60;;
67595;SDS011;54410;48.694;8.934;2024-03-02T01:42:27;21.80;;;13.30;;
67595;SDS011;54410;48.694;8.934;2024-03-02T01:44:54;20.33;;;13.33;;
67595;SDS011;54410;48.694;8.934;2024-03-02T01:47:20;23.60;;;15.00;;
67595;SDS011;54410;48.694;8.934;2024-03-02T01:49:46;21.70;;;15.03;;
67595;SDS011;54410;48.694;8.934;2024-03-02T01:52:12;21.93;;;13.47;;
67595;SDS011;54410;48.694;8.934;2024-03-02T01:54:38;24.73;;;15.00;;
67595;SDS011;54410;48.694;8.934;2024-03-02T01:57:04;25.07;;;15.97;;
67595;SDS011;54410;48.694;8.934;2024-03-02T01:59:30;21.87;;;13.93;;
67595;SDS011;54410;48.694;8.934;2024-03-02T02:01:56;24.77;;;14.10;;
67595;SDS011;54410;48.694;8.934;2024-03-02T02:04:22;24.53;;;13.83;;
67595;SDS011;54410;48.694;8.934;2024-03-02T02:06:52;25.53;;;14.47;;
67595;SDS011;54410;48.694;8.934;2024-03-02T02:09:19;28.17;;;15.40;;
67595;SDS011;54410;48.694;8.934;2024-03-02T02:11:45;22.70;;;14.87;;
67595;SDS011;54410;48.694;8.934;2024-03-02T02:14:11;26.00;;;16.90;;
67595;SDS011;54410;48.694;8.934;2024-03-02T02:16:37;25.47;;;15.50;;
67595;SDS011;54410;48.694;8.934;2024-03-02T02:19:03;26.67;;;15.37;;
67595;SDS011;54410;48.694;8.934;2024-03-02T02:21:29;24.97;;;15.03;;
67595;SDS011;54410;48.694;8.934;2024-03-02T02:23:55;24.17;;;14.43;;
67595;SDS011;54410;48.694;8.934;2024-03-02T02:26:20;21.30;;;14.70;;
67595;SDS011;54410;48.694;8.934;2024-03-02T02:28:46;26.40;;;16.30;;
67595;SDS011;54410;48.694;8.934;2024-03-02T02:31:13;25.73;;;15.30;;
67595;SDS011;54410;48.694;8.934;2024-03-02T02:33:39;28.10;;;15.33;;
67595;SDS011;54410;48.694;8.934;2024-03-02T02:36:05;25.63;;;16.13;;
67595;SDS011;54410;48.694;8.934;2024-03-02T02:38:35;26.87;;;15.37;;
67595;SDS011;54410;48.694;8.934;2024-03-02T02:41:02;26.60;;;16.57;;
67595;SDS011;54410;48.694;8.934;2024-03-02T02:43:28;27.30;;;15.37;;
67595;SDS011;54410;48.694;8.934;2024-03-02T02:45:53;30.23;;;16.03;;
67595;SDS011;54410;48.694;8.934;2024-03-02T02:48:19;29.40;;;16.23;;
67595;SDS011;54410;48.694;8.934;2024-03-02T02:50:45;25.90;;;15.40;;
67595;SDS011;54410;48.694;8.934;2024-03-02T02:53:11;25.97;;;15.77;;
67595;SDS011;54410;48.694;8.934;2024-03-02T02:55:39;27.60;;;16.47;;
67595;SDS011;54410;48.694;8.934;2024-03-02T02:58:08;24.83;;;15.03;;
67595;SDS011;54410;48.694;8.934;2024-03-02T03:00:34;24.07;;;14.70;;
67595;SDS011;54410;48.694;8.934;2024-03-02T03:03:01;25.40;;;15.80;;
67595;SDS011;54410;48.694;8.934;2024-03-02T03:05:27;25.67;;;15.47;;
67595;SDS011;54410;48.694;8.934;2024-03-02T03:07:53;31.87;;;17.70;;
67595;SDS011;54410;48.694;8.934;2024-03-02T03:10:19;25.07;;;14.37;;
67595;SDS011;54410;48.694;8.934;2024-03-02T03:12:48;25.50;;;14.47;;
67595;SDS011;54410;48.694;8.934;2024-03-02T03:15:14;27.57;;;15.77;;
67595;SDS011;54410;48.694;8.934;2024-03-02T03:17:41;30.57;;;16.93;;
67595;SDS011;54410;48.694;8.934;2024-03-02T03:20:07;35.30;;;16.20;;
67595;SDS011;54410;48.694;8.934;2024-03-02T03:22:36;30.60;;;16.43;;
67595;SDS011;54410;48.694;8.934;2024-03-02T03:25:02;30.07;;;16.83;;
67595;SDS011;54410;48.694;8.934;2024-03-02T03:27:28;31.43;;;17.07;;
67595;SDS011;54410;48.694;8.934;2024-03-02T03:29:54;33.07;;;17.37;;
67595;SDS011;54410;48.694;8.934;2024-03-02T03:32:20;31.93;;;17.33;;
67595;SDS011;54410;48.694;8.934;2024-03-02T03:34:46;35.17;;;17.63;;
67595;SDS011;54410;48.694;8.934;2024-03-02T03:37:13;33.43;;;18.33;;
67595;SDS011;54410;48.694;8.934;2024-03-02T03:39:39;29.10;;;17.60;;
67595;SDS011;54410;48.694;8.934;2024-03-02T03:42:05;33.57;;;18.23;;
67595;SDS011;54410;48.694;8.934;2024-03-02T03:44:31;32.87;;;17.23;;
67595;SDS011;54410;48.694;8.934;2024-03-02T03:46:57;38.57;;;18.33;;
67595;SDS011;54410;48.694;8.934;2024-03-02T03:49:23;30.60;;;17.13;;
67595;SDS011;54410;48.694;8.934;2024-03-02T03:51:49;32.90;;;17.50;;
67595;SDS011;54410;48.694;8.934;2024-03-02T03:54:15;33.03;;;18.13;;
67595;SDS011;54410;48.694;8.934;2024-03-02T03:56:41;32.73;;;17.43;;
67595;SDS011;54410;48.694;8.934;2024-03-02T03:59:07;33.70;;;18.13;;
67595;SDS011;54410;48.694;8.934;2024-03-02T04:01:33;35.60;;;18.23;;
67595;SDS011;54410;48.694;8.934;2024-03-02T04:03:59;36.93;;;19.37;;
67595;SDS011;54410;48.694;8.934;2024-03-02T04:06:27;40.27;;;20.27;;
67595;SDS011;54410;48.694;8.934;2024-03-02T04:08:52;35.93;;;19.00;;
67595;SDS011;54410;48.694;8.934;2024-03-02T04:11:18;38.73;;;19.33;;
67595;SDS011;54410;48.694;8.934;2024-03-02T04:13:44;40.40;;;19.47;;
67595;SDS011;54410;48.694;8.934;2024-03-02T04:16:09;36.17;;;18.73;;
67595;SDS011;54410;48.694;8.934;2024-03-02T04:18:35;42.37;;;19.67;;
67595;SDS011;54410;48.694;8.934;2024-03-02T04:21:01;35.43;;;18.70;;
67595;SDS011;54410;48.694;8.934;2024-03-02T04:23:27;35.90;;;18.20;;
67595;SDS011;54410;48.694;8.934;2024-03-02T04:25:53;36.83;;;19.43;;
67595;SDS011;54410;48.694;8.934;2024-03-02T04:28:19;37.70;;;18.53;;
67595;SDS011;54410;48.694;8.934;2024-03-02T04:30:45;33.43;;;18.30;;
67595;SDS011;54410;48.694;8.934;2024-03-02T04:33:11;34.77;;;18.87;;
67595;SDS011;54410;48.694;8.934;2024-03-02T04:35:37;33.33;;;17.87;;
67595;SDS011;54410;48.694;8.934;2024-03-02T04:38:03;39.30;;;19.03;;
67595;SDS011;54410;48.694;8.934;2024-03-02T04:40:29;37.53;;;20.17;;
67595;SDS011;54410;48.694;8.934;2024-03-02T04:42:55;39.77;;;20.53;;
67595;SDS011;54410;48.694;8.934;2024-03-02T04:45:20;38.93;;;19.50;;
67595;SDS011;54410;48.694;8.934;2024-03-02T04:47:46;38.47;;;19.07;;
67595;SDS011;54410;48.694;8.934;2024-03-02T04:50:12;38.50;;;19.57;;
67595;SDS011;54410;48.694;8.934;2024-03-02T04:52:38;38.60;;;19.47;;
67595;SDS011;54410;48.694;8.934;2024-03-02T04:55:04;41.33;;;19.57;;
67595;SDS011;54410;48.694;8.934;2024-03-02T05:00:34;39.17;;;19.77;;
67595;SDS011;54410;48.694;8.934;2024-03-02T05:03:00;41.03;;;20.17;;
67595;SDS011;54410;48.694;8.934;2024-03-02T05:05:26;42.77;;;19.57;;
67595;SDS011;54410;48.694;8.934;2024-03-02T05:07:52;40.93;;;19.63;;
67595;SDS011;54410;48.694;8.934;2024-03-02T05:10:18;42.80;;;19.80;;
67595;SDS011;54410;48.694;8.934;2024-03-02T05:12:44;42.10;;;20.67;;
67595;SDS011;54410;48.694;8.934;2024-03-02T05:15:11;44.13;;;19.67;;
67595;SDS011;54410;48.694;8.934;2024-03-02T05:17:37;38.67;;;19.47;;
67595;SDS011;54410;48.694;8.934;2024-03-02T05:20:04;38.43;;;18.67;;
67595;SDS011;54410;48.694;8.934;2024-03-02T05:22:30;40.73;;;18.07;;
67595;SDS011;54410;48.694;8.934;2024-03-02T05:24:56;36.00;;;18.57;;
67595;SDS011;54410;48.694;8.934;2024-03-02T05:27:22;39.07;;;19.77;;
67595;SDS011;54410;48.694;8.934;2024-03-02T05:29:48;43.83;;;19.93;;
67595;SDS011;54410;48.694;8.934;2024-03-02T05:32:14;43.70;;;20.37;;
67595;SDS011;54410;48.694;8.934;2024-03-02T05:34:40;43.53;;;19.83;;
67595;SDS011;54410;48.694;8.934;2024-03-02T05:37:06;44.50;;;20.73;;
67595;SDS011;54410;48.694;8.934;2024-03-02T05:39:32;45.13;;;20.93;;
67595;SDS011;54410;48.694;8.934;2024-03-02T05:41:57;45.13;;;20.47;;
67595;SDS011;54410;48.694;8.934;2024-03-02T05:44:23;43.80;;;19.80;;
67595;SDS011;54410;48.694;8.934;2024-03-02T05:46:49;44.50;;;20.03;;
67595;SDS011;54410;48.694;8.934;2024-03-02T05:49:15;48.20;;;22.00;;
67595;SDS011;54410;48.694;8.934;2024-03-02T05:51:41;41.33;;;20.80;;
67595;SDS011;54410;48.694;8.934;2024-03-02T05:54:07;41.30;;;19.37;;
67595;SDS011;54410;48.694;8.934;2024-03-02T05:56:33;43.77;;;20.10;;
67595;SDS011;54410;48.694;8.934;2024-03-02T05:58:59;46.40;;;21.37;;
67595;SDS011;54410;48.694;8.934;2024-03-02T06:01:46;42.03;;;20.50;;
67595;SDS011;54410;48.694;8.934;2024-03-02T06:04:13;50.43;;;21.80;;
67595;SDS011;54410;48.694;8.934;2024-03-02T06:06:39;46.13;;;21.10;;
67595;SDS011;54410;48.694;8.934;2024-03-02T06:09:05;53.77;;;22.43;;
67595;SDS011;54410;48.694;8.934;2024-03-02T06:11:37;48.30;;;20.63;;
67595;SDS011;54410;48.694;8.934;2024-03-02T06:14:03;52.73;;;23.83;;
67595;SDS011;54410;48.694;8.934;2024-03-02T06:16:29;50.17;;;24.10;;
67595;SDS011;54410;48.694;8.934;2024-03-02T06:18:56;60.87;;;26.57;;
67595;SDS011;54410;48.694;8.934;2024-03-02T06:21:25;59.77;;;27.93;;
67595;SDS011;54410;48.694;8.934;2024-03-02T06:23:51;68.77;;;29.13;;
67595;SDS011;54410;48.694;8.934;2024-03-02T06:26:17;57.40;;;28.37;;
67595;SDS011;54410;48.694;8.934;2024-03-02T06:28:43;63.67;;;27.43;;
67595;SDS011;54410;48.694;8.934;2024-03-02T06:31:09;56.73;;;23.87;;
67595;SDS011;54410;48.694;8.934;2024-03-02T06:33:35;57.77;;;24.90;;
67595;SDS011;54410;48.694;8.934;2024-03-02T06:36:01;58.50;;;24.53;;
67595;SDS011;54410;48.694;8.934;2024-03-02T06:38:27;55.80;;;24.20;;
67595;SDS011;54410;48.694;8.934;2024-03-02T06:40:53;58.93;;;24.87;;
67595;SDS011;54410;48.694;8.934;2024-03-02T06:43:22;55.73;;;24.53;;
67595;SDS011;54410;48.694;8.934;2024-03-02T06:45:51;64.47;;;27.80;;
67595;SDS011;54410;48.694;8.934;2024-03-02T06:48:17;60.53;;;25.93;;
67595;SDS011;54410;48.694;8.934;2024-03-02T06:50:48;58.17;;;25.27;;
67595;SDS011;54410;48.694;8.934;2024-03-02T06:53:14;60.60;;;25.73;;
67595;SDS011;54410;48.694;8.934;2024-03-02T06:55:42;62.20;;;25.20;;
67595;SDS011;54410;48.694;8.934;2024-03-02T06:58:09;66.57;;;27.37;;
67595;SDS011;54410;48.694;8.934;2024-03-02T07:00:35;57.63;;;27.13;;
67595;SDS011;54410;48.694;8.934;2024-03-02T07:03:01;55.07;;;25.80;;
67595;SDS011;54410;48.694;8.934;2024-03-02T07:05:27;41.73;;;23.87;;
67595;SDS011;54410;48.694;8.934;2024-03-02T07:07:53;35.57;;;20.40;;
67595;SDS011;54410;48.694;8.934;2024-03-02T07:10:19;25.93;;;17.00;;
67595;SDS011;54410;48.694;8.934;2024-03-02T07:12:45;23.83;;;15.43;;
67595;SDS011;54410;48.694;8.934;2024-03-02T07:15:11;19.33;;;13.20;;
67595;SDS011;54410;48.694;8.934;2024-03-02T07:17:53;19.80;;;13.43;;
67595;SDS011;54410;48.694;8.934;2024-03-02T07:20:19;20.87;;;14.07;;
67595;SDS011;54410;48.694;8.934;2024-03-02T07:22:46;19.37;;;13.20;;
67595;SDS011;54410;48.694;8.934;2024-03-02T07:25:12;26.90;;;17.10;;
67595;SDS011;54410;48.694;8.934;2024-03-02T07:27:38;25.10;;;14.83;;
67595;SDS011;54410;48.694;8.934;2024-03-02T07:30:04;22.30;;;14.60;;
67595;SDS011;54410;48.694;8.934;2024-03-02T07:32:30;22.00;;;13.87;;
67595;SDS011;54410;48.694;8.934;2024-03-02T07:34:56;21.60;;;13.37;;
67595;SDS011;54410;48.694;8.934;2024-03-02T07:37:23;22.30;;;13.40;;
67595;SDS011;54410;48.694;8.934;2024-03-02T07:39:49;21.27;;;14.43;;
67595;SDS011;54410;48.694;8.934;2024-03-02T07:42:15;20.57;;;13.90;;
67595;SDS011;54410;48.694;8.934;2024-03-02T07:44:41;20.13;;;13.20;;
67595;SDS011;54410;48.694;8.934;2024-03-02T07:47:07;19.23;;;13.10;;
67595;SDS011;54410;48.694;8.934;2024-03-02T07:49:33;18.90;;;13.33;;
67595;SDS011;54410;48.694;8.934;2024-03-02T07:51:59;18.93;;;13.30;;
67595;SDS011;54410;48.694;8.934;2024-03-02T07:54:25;18.10;;;12.47;;
67595;SDS011;54410;48.694;8.934;2024-03-02T07:56:51;16.00;;;11.77;;
67595;SDS011;54410;48.694;8.934;2024-03-02T07:59:17;14.18;;;10.18;;
67595;SDS011;54410;48.694;8.934;2024-03-02T08:01:43;13.48;;;10.20;;
67595;SDS011;54410;48.694;8.934;2024-03-02T08:04:09;13.55;;;10.13;;
67595;SDS011;54410;48.694;8.934;2024-03-02T08:06:35;12.65;;;9.88;;
67595;SDS011;54410;48.694;8.934;2024-03-02T08:09:01;10.68;;;8.73;;
67595;SDS011;54410;48.694;8.934;2024-03-02T08:11:33;10.32;;;8.05;;
67595;SDS011;54410;48.694;8.934;2024-03-02T08:13:59;11.35;;;8.38;;
67595;SDS011;54410;48.694;8.934;2024-03-02T08:16:25;10.93;;;9.05;;
67595;SDS011;54410;48.694;8.934;2024-03-02T08:18:51;12.52;;;9.45;;
67595;SDS011;54410;48.694;8.934;2024-03-02T08:21:18;9.95;;;8.15;;
67595;SDS011;54410;48.694;8.934;2024-03-02T08:23:43;9.60;;;8.05;;
67595;SDS011;54410;48.694;8.934;2024-03-02T08:26:10;10.13;;;8.18;;
67595;SDS011;54410;48.694;8.934;2024-03-02T08:28:36;9.32;;;8.32;;
67595;SDS011;54410;48.694;8.934;2024-03-02T08:31:02;8.02;;;7.22;;
67595;SDS011;54410;48.694;8.934;2024-03-02T08:33:28;8.40;;;7.50;;
67595;SDS011;54410;48.694;8.934;2024-03-02T08:35:54;9.38;;;7.60;;
67595;SDS011;54410;48.694;8.934;2024-03-02T08:38:21;9.93;;;7.32;;
67595;SDS011;54410;48.694;8.934;2024-03-02T08:40:47;8.85;;;7.95;;
67595;SDS011;54410;48.694;8.934;2024-03-02T08:43:13;8.57;;;7.68;;
67595;SDS011;54410;48.694;8.934;2024-03-02T08:45:39;8.02;;;7.15;;
67595;SDS011;54410;48.694;8.934;2024-03-02T08:48:06;8.15;;;7.25;;
67595;SDS011;54410;48.694;8.934;2024-03-02T08:50:33;8.55;;;6.75;;
67595;SDS011;54410;48.694;8.934;2024-03-02T08:52:59;8.38;;;6.43;;
67595;SDS011;54410;48.694;8.934;2024-03-02T08:55:26;8.50;;;7.30;;
67595;SDS011;54410;48.694;8.934;2024-03-02T08:57:51;8.65;;;6.35;;
67595;SDS011;54410;48.694;8.934;2024-03-02T09:00:17;7.55;;;6.85;;
67595;SDS011;54410;48.694;8.934;2024-03-02T09:02:45;7.43;;;6.72;;
67595;SDS011;54410;48.694;8.934;2024-03-02T09:05:11;7.07;;;6.38;;
67595;SDS011;54410;48.694;8.934;2024-03-02T09:07:37;9.90;;;7.93;;
67595;SDS011;54410;48.694;8.934;2024-03-02T09:10:04;10.85;;;7.85;;
67595;SDS011;54410;48.694;8.934;2024-03-02T09:12:30;10.02;;;8.10;;
67595;SDS011;54410;48.694;8.934;2024-03-02T09:14:55;10.95;;;8.65;;
67595;SDS011;54410;48.694;8.934;2024-03-02T09:17:21;8.40;;;7.35;;
67595;SDS011;54410;48.694;8.934;2024-03-02T09:19:47;8.07;;;6.38;;
67595;SDS011;54410;48.694;8.934;2024-03-02T09:22:13;7.25;;;6.30;;
67595;SDS011;54410;48.694;8.934;2024-03-02T09:24:39;6.72;;;6.03;;
67595;SDS011;54410;48.694;8.934;2024-03-02T09:27:05;6.30;;;5.63;;
67595;SDS011;54410;48.694;8.934;2024-03-02T09:29:31;5.68;;;5.13;;
67595;SDS011;54410;48.694;8.934;2024-03-02T09:31:57;5.57;;;5.07;;
67595;SDS011;54410;48.694;8.934;2024-03-02T09:34:22;12.57;;;9.90;;
67595;SDS011;54410;48.694;8.934;2024-03-02T09:36:48;6.20;;;5.50;;
67595;SDS011;54410;48.694;8.934;2024-03-02T09:39:16;5.60;;;5.07;;
67595;SDS011;54410;48.694;8.934;2024-03-02T09:41:42;6.25;;;5.65;;
67595;SDS011;54410;48.694;8.934;2024-03-02T09:44:09;6.72;;;5.45;;
67595;SDS011;54410;48.694;8.934;2024-03-02T09:46:34;5.20;;;4.65;;
67595;SDS011;54410;48.694;8.934;2024-03-02T09:49:01;5.35;;;4.85;;
67595;SDS011;54410;48.694;8.934;2024-03-02T09:51:27;5.10;;;4.60;;
67595;SDS011;54410;48.694;8.934;2024-03-02T09:53:53;7.13;;;4.45;;
67595;SDS011;54410;48.694;8.934;2024-03-02T09:56:20;4.65;;;4.25;;
67595;SDS011;54410;48.694;8.934;2024-03-02T09:58:47;4.75;;;3.85;;
67595;SDS011;54410;48.694;8.934;2024-03-02T10:01:12;4.63;;;4.22;;
67595;SDS011;54410;48.694;8.934;2024-03-02T10:03:38;4.45;;;4.05;;
67595;SDS011;54410;48.694;8.934;2024-03-02T10:06:24;4.18;;;3.78;;
67595;SDS011;54410;48.694;8.934;2024-03-02T10:08:50;3.97;;;3.63;;
67595;SDS011;54410;48.694;8.934;2024-03-02T10:11:26;3.85;;;3.38;;
67595;SDS011;54410;48.694;8.934;2024-03-02T10:14:05;3.97;;;3.58;;
67595;SDS011;54410;48.694;8.934;2024-03-02T10:16:36;4.45;;;4.05;;
67595;SDS011;54410;48.694;8.934;2024-03-02T10:19:21;3.85;;;3.55;;
67595;SDS011;54410;48.694;8.934;2024-03-02T10:21:51;4.43;;;4.00;;
67595;SDS011;54410;48.694;8.934;2024-03-02T10:24:17;5.53;;;3.80;;
67595;SDS011;54410;48.694;8.934;2024-03-02T10:26:44;4.35;;;3.88;;
67595;SDS011;54410;48.694;8.934;2024-03-02T10:29:10;4.38;;;3.97;;
67595;SDS011;54410;48.694;8.934;2024-03-02T10:31:37;5.50;;;3.90;;
67595;SDS011;54410;48.694;8.934;2024-03-02T10:34:03;4.30;;;3.90;;
67595;SDS011;54410;48.694;8.934;2024-03-02T10:36:29;6.07;;;4.45;;
67595;SDS011;54410;48.694;8.934;2024-03-02T10:38:58;5.13;;;4.05;;
67595;SDS011;54410;48.694;8.934;2024-03-02T10:41:24;4.28;;;3.88;;
67595;SDS011;54410;48.694;8.934;2024-03-02T10:43:52;5.57;;;4.00;;
67595;SDS011;54410;48.694;8.934;2024-03-02T10:46:27;5.45;;;4.05;;
67595;SDS011;54410;48.694;8.934;2024-03-02T10:48:57;5.07;;;3.85;;
67595;SDS011;54410;48.694;8.934;2024-03-02T10:51:26;4.15;;;3.80;;
67595;SDS011;54410;48.694;8.934;2024-03-02T10:53:56;3.70;;;3.40;;
67595;SDS011;54410;48.694;8.934;2024-03-02T10:56:26;4.43;;;4.03;;
67595;SDS011;54410;48.694;8.934;2024-03-02T10:58:55;3.83;;;3.33;;
67595;SDS011;54410;48.694;8.934;2024-03-02T11:03:53;3.70;;;3.40;;
67595;SDS011;54410;48.694;8.934;2024-03-02T11:06:19;3.08;;;2.78;;
67595;SDS011;54410;48.694;8.934;2024-03-02T11:08:46;2.97;;;2.78;;
67595;SDS011;54410;48.694;8.934;2024-03-02T11:11:17;2.75;;;2.55;;
67595;SDS011;54410;48.694;8.934;2024-03-02T11:13:48;3.05;;;2.85;;
67595;SDS011;54410;48.694;8.934;2024-03-02T11:16:32;3.15;;;2.85;;
67595;SDS011;54410;48.694;8.934;2024-03-02T11:19:04;2.00;;;1.90;;
67595;SDS011;54410;48.694;8.934;2024-03-02T11:21:31;2.05;;;1.95;;
67595;SDS011;54410;48.694;8.934;2024-03-02T11:23:58;2.00;;;1.90;;
67595;SDS011;54410;48.694;8.934;2024-03-02T11:26:24;1.60;;;1.50;;
67595;SDS011;54410;48.694;8.934;2024-03-02T11:28:50;1.70;;;1.60;;
67595;SDS011;54410;48.694;8.934;2024-03-02T11:31:16;2.03;;;1.88;;
67595;SDS011;54410;48.694;8.934;2024-03-02T11:33:42;2.00;;;1.90;;
67595;SDS011;54410;48.694;8.934;2024-03-02T11:36:08;1.80;;;1.70;;
67595;SDS011;54410;48.694;8.934;2024-03-02T11:38:35;1.98;;;1.88;;
67595;SDS011;54410;48.694;8.934;2024-03-02T11:41:02;1.80;;;1.70;;
67595;SDS011;54410;48.694;8.934;2024-03-02T11:43:28;2.13;;;2.03;;
67595;SDS011;54410;48.694;8.934;2024-03-02T11:45:58;2.00;;;1.90;;
67595;SDS011;54410;48.694;8.934;2024-03-02T11:48:25;2.15;;;1.77;;
67595;SDS011;54410;48.694;8.934;2024-03-02T11:50:51;2.05;;;1.92;;
67595;SDS011;54410;48.694;8.934;2024-03-02T11:53:17;1.73;;;1.52;;
67595;SDS011;54410;48.694;8.934;2024-03-02T11:55:43;1.70;;;1.60;;
67595;SDS011;54410;48.694;8.934;2024-03-02T11:58:13;1.80;;;1.70;;
67595;SDS011;54410;48.694;8.934;2024-03-02T12:00:39;1.60;;;1.50;;
67595;SDS011;54410;48.694;8.934;2024-03-02T12:03:05;1.90;;;1.80;;
67595;SDS011;54410;48.694;8.934;2024-03-02T12:05:32;1.60;;;1.50;;
67595;SDS011;54410;48.694;8.934;2024-03-02T12:08:03;1.77;;;1.67;;
67595;SDS011;54410;48.694;8.934;2024-03-02T12:10:29;1.58;;;1.48;;
67595;SDS011;54410;48.694;8.934;2024-03-02T12:12:56;2.83;;;1.50;;
67595;SDS011;54410;48.694;8.934;2024-03-02T12:15:29;1.63;;;1.52;;
67595;SDS011;54410;48.694;8.934;2024-03-02T12:17:56;1.90;;;1.80;;
67595;SDS011;54410;48.694;8.934;2024-03-02T12:20:22;2.20;;;1.85;;
67595;SDS011;54410;48.694;8.934;2024-03-02T12:22:55;1.80;;;1.70;;
67595;SDS011;54410;48.694;8.934;2024-03-02T12:25:22;1.60;;;1.50;;
67595;SDS011;54410;48.694;8.934;2024-03-02T12:27:49;1.30;;;1.30;;
67595;SDS011;54410;48.694;8.934;2024-03-02T12:30:18;1.67;;;1.60;;
67595;SDS011;54410;48.694;8.934;2024-03-02T12:32:45;1.50;;;1.40;;
67595;SDS011;54410;48.694;8.934;2024-03-02T12:35:11;1.77;;;1.48;;
67595;SDS011;54410;48.694;8.934;2024-03-02T12:37:47;1.70;;;1.60;;
67595;SDS011;54410;48.694;8.934;2024-03-02T12:40:13;1.65;;;1.58;;
67595;SDS011;54410;48.694;8.934;2024-03-02T12:42:40;1.50;;;1.40;;
67595;SDS011;54410;48.694;8.934;2024-03-02T12:45:07;1.60;;;1.50;;
67595;SDS011;54410;48.694;8.934;2024-03-02T12:47:33;1.42;;;1.42;;
67595;SDS011;54410;48.694;8.934;2024-03-02T12:50:03;1.85;;;1.75;;
67595;SDS011;54410;48.694;8.934;2024-03-02T12:52:29;1.98;;;1.85;;
67595;SDS011;54410;48.694;8.934;2024-03-02T12:54:55;15.75;;;6.53;;
67595;SDS011;54410;48.694;8.934;2024-03-02T12:57:26;2.50;;;2.20;;
67595;SDS011;54410;48.694;8.934;2024-03-02T12:59:52;17.95;;;5.55;;
67595;SDS011;54410;48.694;8.934;2024-03-02T13:02:18;2.47;;;2.15;;
67595;SDS011;54410;48.694;8.934;2024-03-02T13:04:51;1.90;;;1.80;;
67595;SDS011;54410;48.694;8.934;2024-03-02T13:07:18;8.45;;;4.32;;
67595;SDS011;54410;48.694;8.934;2024-03-02T13:09:45;1.55;;;1.45;;
67595;SDS011;54410;48.694;8.934;2024-03-02T13:12:11;1.50;;;1.40;;
67595;SDS011;54410;48.694;8.934;2024-03-02T13:14:36;1.55;;;1.45;;
67595;SDS011;54410;48.694;8.934;2024-03-02T13:17:02;1.70;;;1.60;;
67595;SDS011;54410;48.694;8.934;2024-03-02T13:19:31;1.80;;;1.70;;
67595;SDS011;54410;48.694;8.934;2024-03-02T13:21:57;1.95;;;1.75;;
67595;SDS011;54410;48.694;8.934;2024-03-02T13:24:23;1.70;;;1.60;;
67595;SDS011;54410;48.694;8.934;2024-03-02T13:26:54;1.80;;;1.70;;
67595;SDS011;54410;48.694;8.934;2024-03-02T13:29:22;2.00;;;1.90;;
67595;SDS011;54410;48.694;8.934;2024-03-02T13:31:47;2.10;;;1.90;;
67595;SDS011;54410;48.694;8.934;2024-03-02T13:34:13;2.00;;;1.90;;
67595;SDS011;54410;48.694;8.934;2024-03-02T13:36:39;1.80;;;1.70;;
67595;SDS011;54410;48.694;8.934;2024-03-02T13:39:05;1.90;;;1.80;;
67595;SDS011;54410;48.694;8.934;2024-03-02T13:41:34;2.50;;;1.77;;
67595;SDS011;54410;48.694;8.934;2024-03-02T13:43:59;2.85;;;1.80;;
67595;SDS011;54410;48.694;8.934;2024-03-02T13:46:26;1.92;;;1.83;;
67595;SDS011;54410;48.694;8.934;2024-03-02T13:48:52;1.70;;;1.60;;
67595;SDS011;54410;48.694;8.934;2024-03-02T13:51:18;1.90;;;1.80;;
67595;SDS011;54410;48.694;8.934;2024-03-02T13:53:44;2.30;;;2.10;;
67595;SDS011;54410;48.694;8.934;2024-03-02T13:56:10;2.33;;;2.13;;
67595;SDS011;54410;48.694;8.934;2024-03-02T13:58:36;2.20;;;2.00;;
67595;SDS011;54410;48.694;8.934;2024-03-02T14:01:02;2.10;;;2.00;;
67595;SDS011;54410;48.694;8.934;2024-03-02T14:03:29;2.15;;;2.00;;
67595;SDS011;54410;48.694;8.934;2024-03-02T14:05:55;2.05;;;1.90;;
67595;SDS011;54410;48.694;8.934;2024-03-02T14:08:21;1.85;;;1.75;;
67595;SDS011;54410;48.694;8.934;2024-03-02T14:10:46;1.80;;;1.70;;
67595;SDS011;54410;48.694;8.934;2024-03-02T14:13:12;1.80;;;1.70;;
67595;SDS011;54410;48.694;8.934;2024-03-02T14:15:38;1.98;;;1.88;;
67595;SDS011;54410;48.694;8.934;2024-03-02T14:18:05;1.95;;;1.85;;
67595;SDS011;54410;48.694;8.934;2024-03-02T14:20:31;1.98;;;1.88;;
67595;SDS011;54410;48.694;8.934;2024-03-02T14:22:58;1.80;;;1.70;;
67595;SDS011;54410;48.694;8.934;2024-03-02T14:25:24;1.90;;;1.80;;
67595;SDS011;54410;48.694;8.934;2024-03-02T14:27:50;1.70;;;1.60;;
67595;SDS011;54410;48.694;8.934;2024-03-02T14:30:16;1.70;;;1.60;;
67595;SDS011;54410;48.694;8.934;2024-03-02T14:32:42;1.80;;;1.70;;
67595;SDS011;54410;48.694;8.934;2024-03-02T14:35:08;1.90;;;1.80;;
67595;SDS011;54410;48.694;8.934;2024-03-02T14:37:35;2.00;;;1.90;;
67595;SDS011;54410;48.694;8.934;2024-03-02T14:40:01;2.08;;;1.98;;
67595;SDS011;54410;48.694;8.934;2024-03-02T14:42:31;1.90;;;1.80;;